createdAt,value
2018-04-28T00:00:15.811Z,3.17
2018-04-28T00:02:44.135Z,2.35
2018-04-28T00:05:12.484Z,2.87
2018-04-28T00:07:40.807Z,2.80
2018-04-28T00:10:09.165Z,3.30
2018-04-28T00:12:37.492Z,2.95
2018-04-28T00:15:05.853Z,4.18
2018-04-28T00:17:34.930Z,3.75
2018-04-28T00:20:05.192Z,3.70
2018-04-28T00:22:35.435Z,3.53
2018-04-28T00:25:16.308Z,3.40
2018-04-28T00:27:49.077Z,3.15
2018-04-28T00:30:34.961Z,3.47
2018-04-28T00:33:08.832Z,2.95
2018-04-28T00:35:37.188Z,2.70
2018-04-28T00:38:05.519Z,3.75
2018-04-28T00:40:39.706Z,3.35
2018-04-28T00:43:08.043Z,3.47
2018-04-28T00:45:38.116Z,2.95
2018-04-28T00:48:10.904Z,4.82
2018-04-28T00:50:40.787Z,3.70
2018-04-28T00:53:09.121Z,4.03
2018-04-28T00:55:38.377Z,2.92
2018-04-28T01:01:06.964Z,2.87
2018-04-28T01:03:36.033Z,3.45
2018-04-28T01:06:04.384Z,3.55
2018-04-28T01:08:32.717Z,4.28
2018-04-28T01:11:05.896Z,3.60
2018-04-28T01:13:41.281Z,2.90
2018-04-28T01:16:09.632Z,3.60
2018-04-28T01:18:42.680Z,3.40
2018-04-28T01:21:11.026Z,3.83
2018-04-28T01:23:50.857Z,3.50
2018-04-28T01:26:26.132Z,3.83
2018-04-28T01:28:56.981Z,3.83
2018-04-28T01:31:25.976Z,3.50
2018-04-28T01:37:02.232Z,3.70
2018-04-28T01:39:35.212Z,3.67
2018-04-28T01:45:23.305Z,3.05
2018-04-28T01:50:59.105Z,3.90
2018-04-28T01:53:28.016Z,4.22
2018-04-28T01:56:02.901Z,4.00
2018-04-28T01:58:37.136Z,3.20
2018-04-28T02:01:06.060Z,2.72
2018-04-28T02:03:38.976Z,3.60
2018-04-28T02:06:13.208Z,2.80
2018-04-28T02:08:42.256Z,3.17
2018-04-28T02:11:17.495Z,3.00
2018-04-28T02:13:46.608Z,2.55
2018-04-28T02:19:16.533Z,2.72
2018-04-28T02:25:00.212Z,2.30
2018-04-28T02:27:34.456Z,2.95
2018-04-28T02:30:04.348Z,2.95
2018-04-28T02:35:35.069Z,3.17
2018-04-28T02:38:05.241Z,2.47
2018-04-28T02:43:38.097Z,3.00
2018-04-28T02:46:06.429Z,3.33
2018-04-28T02:51:40.041Z,2.40
2018-04-28T02:54:09.918Z,3.15
2018-04-28T02:56:38.273Z,2.85
2018-04-28T02:59:17.489Z,2.75
2018-04-28T03:01:52.152Z,2.60
2018-04-28T03:04:35.384Z,2.90
2018-04-28T03:10:15.657Z,3.53
2018-04-28T03:12:43.728Z,3.12
2018-04-28T03:15:11.785Z,2.70
2018-04-28T03:17:48.832Z,2.40
2018-04-28T03:20:18.456Z,3.60
2018-04-28T03:22:48.768Z,3.03
2018-04-28T03:25:33.109Z,3.17
2018-04-28T03:28:04.368Z,2.72
2018-04-28T03:30:33.790Z,3.00
2018-04-28T03:33:08.244Z,2.70
2018-04-28T03:35:36.292Z,2.40
2018-04-28T03:38:05.236Z,2.95
2018-04-28T03:40:36.220Z,3.53
2018-04-28T03:43:06.858Z,2.58
2018-04-28T03:45:35.744Z,2.53
2018-04-28T03:51:23.849Z,3.30
2018-04-28T03:54:04.416Z,3.42
2018-04-28T03:56:35.053Z,3.33
2018-04-28T03:59:14.864Z,3.10
2018-04-28T04:01:54.627Z,3.03
2018-04-28T04:04:30.384Z,2.97
2018-04-28T04:07:03.107Z,2.72
2018-04-28T04:09:49.796Z,3.10
2018-04-28T04:12:44.428Z,2.78
2018-04-28T04:18:16.032Z,3.03
2018-04-28T04:20:52.831Z,2.70
2018-04-28T04:23:37.588Z,2.60
2018-04-28T04:26:13.204Z,3.00
2018-04-28T04:31:47.956Z,2.90
2018-04-28T04:37:36.318Z,2.95
2018-04-28T04:40:05.884Z,3.85
2018-04-28T04:42:43.612Z,2.85
2018-04-28T04:45:12.481Z,3.45
2018-04-28T04:47:51.177Z,2.75
2018-04-28T04:53:30.816Z,3.28
2018-04-28T04:56:07.328Z,3.60
2018-04-28T04:58:41.273Z,3.40
2018-04-28T05:01:29.816Z,4.03
2018-04-28T05:04:03.873Z,3.67
2018-04-28T05:06:40.389Z,4.45
2018-04-28T05:09:24.125Z,4.15
2018-04-28T05:11:57.826Z,4.47
2018-04-28T05:14:31.584Z,3.75
2018-04-28T05:20:14.300Z,2.95
2018-04-28T05:26:06.048Z,4.00
2018-04-28T05:28:41.864Z,3.50
2018-04-28T05:34:23.765Z,3.45
2018-04-28T05:36:59.386Z,3.17
2018-04-28T05:39:33.273Z,2.90
2018-04-28T05:42:27.788Z,3.53
2018-04-28T05:48:32.456Z,4.05
2018-04-28T05:51:15.900Z,2.70
2018-04-28T05:57:07.499Z,3.90
2018-04-28T05:59:41.133Z,3.53
2018-04-28T06:02:12.928Z,3.50
2018-04-28T06:04:47.669Z,3.30
2018-04-28T06:10:22.013Z,4.10
2018-04-28T06:13:01.924Z,3.70
2018-04-28T06:15:37.525Z,3.40
2018-04-28T06:18:17.537Z,3.30
2018-04-28T06:20:46.389Z,3.65
2018-04-28T06:23:14.433Z,3.20
2018-04-28T06:25:42.501Z,3.00
2018-04-28T06:28:10.554Z,3.10
2018-04-28T06:30:38.612Z,4.63
2018-04-28T06:33:06.665Z,3.17
2018-04-28T06:35:34.731Z,3.50
2018-04-28T06:38:02.778Z,3.20
2018-04-28T06:40:30.843Z,3.00
2018-04-28T06:42:58.889Z,3.12
2018-04-28T06:45:26.956Z,3.10
2018-04-28T06:47:55.004Z,3.13
2018-04-28T06:50:23.069Z,3.30
2018-04-28T06:52:51.112Z,3.70
2018-04-28T06:55:19.180Z,2.80
2018-04-28T06:57:47.232Z,3.20
2018-04-28T07:00:16.213Z,3.03
2018-04-28T07:02:44.281Z,3.00
2018-04-28T07:05:12.343Z,3.23
2018-04-28T07:07:40.393Z,2.63
2018-04-28T07:10:08.470Z,2.80
2018-04-28T07:12:36.520Z,3.75
2018-04-28T07:15:04.597Z,2.57
2018-04-28T07:17:32.640Z,3.47
2018-04-28T07:20:00.705Z,2.60
2018-04-28T07:22:28.761Z,3.37
2018-04-28T07:24:56.869Z,2.77
2018-04-28T07:27:24.920Z,2.00
2018-04-28T07:29:52.972Z,2.40
2018-04-28T07:32:21.021Z,3.00
2018-04-28T07:34:49.089Z,2.87
2018-04-28T07:37:17.140Z,2.40
2018-04-28T07:39:45.204Z,2.30
2018-04-28T07:42:13.319Z,2.80
2018-04-28T07:44:41.317Z,3.07
2018-04-28T07:47:09.370Z,4.33
2018-04-28T07:49:37.425Z,3.00
2018-04-28T07:52:05.473Z,2.92
2018-04-28T07:54:33.545Z,3.37
2018-04-28T07:57:01.589Z,3.00
2018-04-28T07:59:30.189Z,3.22
2018-04-28T08:01:58.353Z,2.93
2018-04-28T08:04:26.384Z,2.55
2018-04-28T08:06:54.526Z,3.30
2018-04-28T08:09:22.519Z,3.47
2018-04-28T08:11:50.580Z,3.00
2018-04-28T08:14:18.620Z,2.67
2018-04-28T08:16:46.691Z,3.70
2018-04-28T08:19:14.737Z,2.80
2018-04-28T08:21:42.806Z,3.90
2018-04-28T08:24:10.854Z,2.80
2018-04-28T08:26:39.813Z,3.10
2018-04-28T08:29:07.860Z,3.60
2018-04-28T08:31:35.924Z,3.30
2018-04-28T08:34:03.977Z,3.35
2018-04-28T08:36:33.812Z,4.43
2018-04-28T08:39:02.168Z,3.97
2018-04-28T08:41:30.364Z,3.10
2018-04-28T08:43:58.396Z,3.10
2018-04-28T08:46:26.460Z,3.20
2018-04-28T08:48:54.509Z,3.60
2018-04-28T08:51:23.715Z,4.17
2018-04-28T08:53:52.133Z,4.50
2018-04-28T08:56:20.624Z,3.70
2018-04-28T08:58:48.926Z,3.80
2018-04-28T09:01:17.252Z,4.00
2018-04-28T09:03:46.972Z,4.53
2018-04-28T09:06:16.831Z,3.78
2018-04-28T09:08:45.204Z,3.65
2018-04-28T09:11:13.960Z,3.12
2018-04-28T09:13:42.340Z,3.30
2018-04-28T09:16:10.693Z,2.73
2018-04-28T09:18:39.976Z,3.97
2018-04-28T09:21:08.562Z,2.47
2018-04-28T09:23:37.078Z,3.43
2018-04-28T09:26:05.675Z,3.00
2018-04-28T09:28:34.099Z,3.58
2018-04-28T09:31:02.758Z,3.07
2018-04-28T09:33:31.511Z,3.37
2018-04-28T09:36:00.223Z,3.13
2018-04-28T09:38:29.064Z,2.90
2018-04-28T09:40:58.953Z,3.30
2018-04-28T09:43:27.647Z,3.20
2018-04-28T09:45:56.355Z,2.87
2018-04-28T09:48:24.888Z,2.67
2018-04-28T09:50:53.515Z,3.30
2018-04-28T09:53:22.082Z,3.78
2018-04-28T09:55:50.730Z,3.00
2018-04-28T09:58:20.231Z,3.93
2018-04-28T10:00:51.442Z,3.70
2018-04-28T10:03:21.961Z,3.00
2018-04-28T10:05:50.631Z,3.40
2018-04-28T10:08:19.174Z,3.00
2018-04-28T10:10:47.868Z,3.17
2018-04-28T10:13:16.497Z,2.63
2018-04-28T10:15:44.945Z,3.50
2018-04-28T10:18:13.272Z,3.37
2018-04-28T10:20:41.609Z,3.60
2018-04-28T10:23:09.988Z,3.10
2018-04-28T10:25:38.354Z,3.73
2018-04-28T10:28:06.705Z,3.00
2018-04-28T10:30:35.064Z,3.60
2018-04-28T10:33:03.413Z,4.13
2018-04-28T10:35:31.781Z,3.58
2018-04-28T10:38:00.142Z,2.60
2018-04-28T10:40:28.490Z,3.43
2018-04-28T10:42:56.840Z,3.57
2018-04-28T10:45:25.895Z,2.90
2018-04-28T10:47:54.290Z,3.40
2018-04-28T10:50:22.644Z,2.60
2018-04-28T10:52:50.985Z,2.40
2018-04-28T10:55:19.317Z,2.87
2018-04-28T10:57:47.673Z,2.50
2018-04-28T11:00:15.996Z,2.83
2018-04-28T11:02:44.346Z,3.57
2018-04-28T11:05:13.000Z,3.90
2018-04-28T11:07:41.382Z,2.95
2018-04-28T11:10:26.316Z,2.50
2018-04-28T11:12:54.671Z,2.37
2018-04-28T11:15:23.008Z,5.37
2018-04-28T11:17:51.361Z,2.80
2018-04-28T11:20:19.697Z,3.00
2018-04-28T11:22:48.049Z,2.70
2018-04-28T11:25:16.391Z,2.60
2018-04-28T11:27:44.749Z,2.20
2018-04-28T11:30:13.093Z,2.90
2018-04-28T11:32:41.453Z,2.20
2018-04-28T11:35:09.772Z,2.53
2018-04-28T11:37:38.120Z,3.73
2018-04-28T11:40:06.454Z,2.90
2018-04-28T11:42:34.796Z,3.00
2018-04-28T11:45:03.120Z,2.23
2018-04-28T11:47:31.476Z,2.42
2018-04-28T11:49:59.874Z,1.57
2018-04-28T11:52:28.221Z,3.47
2018-04-28T11:54:56.548Z,2.07
2018-04-28T11:57:24.905Z,2.00
2018-04-28T11:59:53.237Z,2.37
2018-04-28T12:02:21.590Z,1.80
2018-04-28T12:04:49.921Z,2.70
2018-04-28T12:07:18.268Z,1.83
2018-04-28T12:09:46.605Z,1.75
2018-04-28T12:12:14.961Z,2.17
2018-04-28T12:14:43.305Z,2.20
2018-04-28T12:17:11.648Z,1.60
2018-04-28T12:19:39.976Z,1.80
2018-04-28T12:22:08.325Z,2.62
2018-04-28T12:24:36.657Z,1.12
2018-04-28T12:27:05.004Z,1.80
2018-04-28T12:29:33.324Z,1.60
2018-04-28T12:32:02.359Z,1.77
2018-04-28T12:34:30.683Z,2.40
2018-04-28T12:36:59.025Z,1.80
2018-04-28T12:39:27.373Z,1.60
2018-04-28T12:41:55.705Z,1.80
2018-04-28T12:44:24.062Z,2.12
2018-04-28T12:46:52.381Z,2.23
2018-04-28T12:49:20.733Z,1.70
2018-04-28T12:51:49.079Z,1.95
2018-04-28T12:54:17.417Z,1.13
2018-04-28T12:56:45.746Z,1.80
2018-04-28T12:59:14.089Z,1.43
2018-04-28T13:01:42.419Z,1.40
2018-04-28T13:04:10.764Z,1.77
2018-04-28T13:06:39.985Z,1.67
2018-04-28T13:09:08.349Z,2.65
2018-04-28T13:11:36.845Z,1.70
2018-04-28T13:14:05.121Z,1.57
2018-04-28T13:16:34.427Z,1.70
2018-04-28T13:19:02.781Z,2.12
2018-04-28T13:21:31.121Z,1.50
2018-04-28T13:23:59.473Z,2.20
2018-04-28T13:26:27.797Z,2.87
2018-04-28T13:28:56.165Z,2.12
2018-04-28T13:31:24.501Z,1.90
2018-04-28T13:33:52.852Z,1.53
2018-04-28T13:36:21.177Z,1.50
2018-04-28T13:38:49.532Z,2.23
2018-04-28T13:41:17.857Z,1.70
2018-04-28T13:43:46.251Z,2.30
2018-04-28T13:46:14.568Z,2.10
2018-04-28T13:48:42.929Z,1.80
2018-04-28T13:51:11.256Z,2.13
2018-04-28T13:53:39.613Z,2.03
2018-04-28T13:56:08.015Z,1.65
2018-04-28T13:58:36.301Z,1.67
2018-04-28T14:01:04.633Z,1.80
2018-04-28T14:03:32.977Z,2.20
2018-04-28T14:06:01.310Z,2.55
2018-04-28T14:08:29.676Z,3.05
2018-04-28T14:10:58.149Z,3.20
2018-04-28T14:13:26.493Z,1.90
2018-04-28T14:15:54.826Z,1.70
2018-04-28T14:18:23.178Z,1.90
2018-04-28T14:20:51.509Z,1.80
2018-04-28T14:23:19.853Z,2.40
2018-04-28T14:25:48.190Z,1.73
2018-04-28T14:28:16.541Z,1.52
2018-04-28T14:30:44.873Z,1.97
2018-04-28T14:33:13.215Z,2.10
2018-04-28T14:35:41.551Z,1.60
2018-04-28T14:38:09.876Z,2.03
2018-04-28T14:40:38.226Z,1.40
2018-04-28T14:43:06.552Z,2.40
2018-04-28T14:45:34.906Z,1.70
2018-04-28T14:48:03.240Z,2.10
2018-04-28T14:50:31.593Z,2.00
2018-04-28T14:52:59.920Z,2.07
2018-04-28T14:55:28.264Z,1.50
2018-04-28T14:57:56.592Z,1.53
2018-04-28T15:00:24.953Z,2.10
2018-04-28T15:02:53.289Z,2.03
2018-04-28T15:05:21.641Z,1.95
2018-04-28T15:07:49.986Z,1.73
2018-04-28T15:10:18.973Z,2.70
2018-04-28T15:12:47.302Z,1.83
2018-04-28T15:15:15.652Z,1.90
2018-04-28T15:17:43.994Z,1.87
2018-04-28T15:20:12.349Z,2.27
2018-04-28T15:22:40.683Z,1.30
2018-04-28T15:25:09.124Z,2.00
2018-04-28T15:27:37.463Z,2.87
2018-04-28T15:30:05.849Z,2.50
2018-04-28T15:32:34.170Z,1.97
2018-04-28T15:35:02.531Z,2.20
2018-04-28T15:37:30.918Z,1.62
2018-04-28T15:39:59.252Z,1.97
2018-04-28T15:42:27.572Z,2.20
2018-04-28T15:44:55.922Z,2.37
2018-04-28T15:47:24.311Z,2.63
2018-04-28T15:49:53.439Z,2.25
2018-04-28T15:52:21.752Z,2.13
2018-04-28T15:54:50.105Z,1.90
2018-04-28T15:57:24.890Z,2.28
2018-04-28T15:59:58.952Z,2.13
2018-04-28T16:02:28.208Z,2.57
2018-04-28T16:04:56.587Z,2.57
2018-04-28T16:07:24.936Z,2.80
2018-04-28T16:09:53.300Z,2.60
2018-04-28T16:12:21.625Z,2.27
2018-04-28T16:14:50.216Z,3.08
2018-04-28T16:17:18.513Z,2.80
2018-04-28T16:19:46.872Z,2.83
2018-04-28T16:22:15.228Z,3.40
2018-04-28T16:24:43.589Z,3.10
2018-04-28T16:27:12.482Z,3.30
2018-04-28T16:29:41.421Z,3.15
2018-04-28T16:32:09.773Z,2.53
2018-04-28T16:34:38.092Z,2.63
2018-04-28T16:37:06.436Z,2.83
2018-04-28T16:39:34.785Z,3.47
2018-04-28T16:42:08.613Z,2.57
2018-04-28T16:44:38.341Z,3.10
2018-04-28T16:47:06.697Z,3.40
2018-04-28T16:49:35.030Z,3.17
2018-04-28T16:52:03.432Z,3.12
2018-04-28T16:54:31.845Z,3.20
2018-04-28T16:57:00.240Z,4.03
2018-04-28T16:59:35.646Z,3.70
2018-04-28T17:02:09.781Z,3.45
2018-04-28T17:04:38.153Z,2.80
2018-04-28T17:07:06.529Z,3.40
2018-04-28T17:09:34.870Z,3.70
2018-04-28T17:12:03.218Z,3.37
2018-04-28T17:14:31.570Z,4.03
2018-04-28T17:17:00.128Z,2.73
2018-04-28T17:19:28.372Z,4.67
2018-04-28T17:22:00.161Z,3.30
2018-04-28T17:24:30.505Z,4.20
2018-04-28T17:26:58.865Z,7.20
2018-04-28T17:29:27.197Z,5.97
2018-04-28T17:31:55.569Z,5.00
2018-04-28T17:34:23.873Z,3.63
2018-04-28T17:36:52.219Z,3.63
2018-04-28T17:39:20.553Z,3.60
2018-04-28T17:41:48.905Z,3.40
2018-04-28T17:44:17.238Z,3.73
2018-04-28T17:46:45.607Z,3.07
2018-04-28T17:49:14.328Z,4.00
2018-04-28T17:51:42.745Z,3.40
2018-04-28T17:54:11.888Z,3.42
2018-04-28T17:56:40.236Z,3.40
2018-04-28T17:59:08.569Z,3.40
2018-04-28T18:01:36.920Z,3.67
2018-04-28T18:04:05.264Z,3.67
2018-04-28T18:06:34.521Z,4.17
2018-04-28T18:09:02.849Z,3.20
2018-04-28T18:11:31.200Z,4.20
2018-04-28T18:13:59.750Z,3.40
2018-04-28T18:16:28.101Z,3.90
2018-04-28T18:18:56.426Z,3.50
2018-04-28T18:21:24.780Z,3.80
2018-04-28T18:23:57.710Z,4.13
2018-04-28T18:26:26.170Z,4.00
2018-04-28T18:28:54.492Z,3.77
2018-04-28T18:31:22.840Z,4.00
2018-04-28T18:33:51.169Z,4.05
2018-04-28T18:36:19.631Z,4.10
2018-04-28T18:38:47.961Z,4.30
2018-04-28T18:41:16.441Z,3.80
2018-04-28T18:43:44.822Z,3.60
2018-04-28T18:46:13.247Z,3.93
2018-04-28T18:48:41.701Z,4.22
2018-04-28T18:51:10.203Z,4.65
2018-04-28T18:53:38.621Z,4.47
2018-04-28T18:56:07.077Z,5.10
2018-04-28T18:58:35.669Z,4.25
2018-04-28T19:01:04.013Z,3.77
2018-04-28T19:03:32.389Z,4.40
2018-04-28T19:06:00.722Z,4.50
2018-04-28T19:11:02.565Z,4.55
2018-04-28T19:13:30.919Z,3.97
2018-04-28T19:15:59.271Z,3.97
2018-04-28T19:18:27.625Z,4.27
2018-04-28T19:20:56.022Z,5.20
2018-04-28T19:23:24.380Z,5.30
2018-04-28T19:25:52.745Z,4.50
2018-04-28T19:28:21.097Z,5.77
2018-04-28T19:30:49.505Z,5.20
2018-04-28T19:33:17.923Z,5.55
2018-04-28T19:35:46.244Z,5.30
2018-04-28T19:38:15.388Z,5.70
2018-04-28T19:40:43.720Z,5.50
2018-04-28T19:43:12.093Z,5.57
2018-04-28T19:45:40.433Z,5.10
2018-04-28T19:48:08.787Z,5.12
2018-04-28T19:50:37.121Z,4.72
2018-04-28T19:53:05.477Z,5.97
2018-04-28T19:55:33.813Z,5.70
2018-04-28T19:58:02.294Z,6.73
2018-04-28T20:00:30.713Z,7.18
2018-04-28T20:02:59.045Z,6.90
2018-04-28T20:05:27.378Z,7.43
2018-04-28T20:07:55.732Z,8.10
2018-04-28T20:10:24.082Z,7.60
2018-04-28T20:12:52.433Z,7.35
2018-04-28T20:15:20.768Z,7.93
2018-04-28T20:17:49.709Z,6.80
2018-04-28T20:20:18.190Z,6.43
2018-04-28T20:22:58.416Z,7.40
2018-04-28T20:25:26.768Z,7.23
2018-04-28T20:27:55.134Z,7.07
2018-04-28T20:30:23.519Z,7.57
2018-04-28T20:32:52.013Z,6.77
2018-04-28T20:35:20.333Z,7.75
2018-04-28T20:37:48.681Z,8.50
2018-04-28T20:40:17.017Z,7.82
2018-04-28T20:42:45.496Z,7.10
2018-04-28T20:45:14.429Z,7.03
2018-04-28T20:47:42.785Z,7.23
2018-04-28T20:50:11.121Z,6.20
2018-04-28T20:52:39.480Z,7.10
2018-04-28T20:55:07.816Z,7.93
2018-04-28T20:57:36.181Z,8.88
2018-04-28T21:00:04.515Z,8.77
2018-04-28T21:02:32.840Z,7.30
2018-04-28T21:05:01.262Z,7.20
2018-04-28T21:07:29.599Z,7.87
2018-04-28T21:09:57.944Z,7.30
2018-04-28T21:12:26.280Z,7.00
2018-04-28T21:14:54.636Z,7.45
2018-04-28T21:17:22.974Z,7.27
2018-04-28T21:19:51.333Z,6.55
2018-04-28T21:22:19.656Z,7.60
2018-04-28T21:24:48.921Z,6.60
2018-04-28T21:27:17.255Z,7.07
2018-04-28T21:29:45.773Z,7.17
2018-04-28T21:32:14.088Z,6.67
2018-04-28T21:34:42.449Z,8.40
2018-04-28T21:37:10.776Z,8.50
2018-04-28T21:39:39.237Z,7.53
2018-04-28T21:42:07.687Z,8.07
2018-04-28T21:44:36.396Z,7.25
2018-04-28T21:47:04.730Z,7.93
2018-04-28T21:49:33.085Z,7.57
2018-04-28T21:52:01.417Z,7.37
2018-04-28T21:54:29.769Z,8.10
2018-04-28T21:56:58.104Z,8.10
2018-04-28T21:59:26.460Z,7.30
2018-04-28T22:01:54.793Z,8.03
2018-04-28T22:04:24.177Z,8.85
2018-04-28T22:06:52.577Z,6.80
2018-04-28T22:09:20.919Z,7.37
2018-04-28T22:11:49.249Z,7.43
2018-04-28T22:14:17.604Z,7.87
2018-04-28T22:16:45.941Z,6.63
2018-04-28T22:19:14.307Z,7.03
2018-04-28T22:21:42.639Z,6.10
2018-04-28T22:24:10.996Z,7.23
2018-04-28T22:26:39.329Z,6.47
2018-04-28T22:29:07.693Z,6.97
2018-04-28T22:31:36.021Z,7.10
2018-04-28T22:34:04.372Z,6.65
2018-04-28T22:36:32.705Z,7.00
2018-04-28T22:39:01.052Z,6.70
2018-04-28T22:41:29.385Z,8.00
2018-04-28T22:43:58.708Z,6.68
2018-04-28T22:46:27.036Z,7.33
2018-04-28T22:48:55.389Z,6.90
2018-04-28T22:51:23.721Z,7.05
2018-04-28T22:53:52.072Z,7.22
2018-04-28T22:56:20.409Z,5.93
2018-04-28T22:58:48.757Z,6.62
2018-04-28T23:01:17.093Z,6.33
2018-04-28T23:03:45.545Z,7.10
2018-04-28T23:06:13.876Z,5.60
2018-04-28T23:08:42.213Z,6.77
2018-04-28T23:11:10.573Z,7.23
2018-04-28T23:13:38.905Z,7.45
2018-04-28T23:16:07.261Z,7.25
2018-04-28T23:18:35.798Z,7.33
2018-04-28T23:21:04.173Z,6.47
2018-04-28T23:23:33.449Z,6.43
2018-04-28T23:26:01.805Z,6.90
2018-04-28T23:28:30.141Z,5.90
2018-04-28T23:30:58.501Z,6.40
2018-04-28T23:33:27.036Z,6.20
2018-04-28T23:35:55.469Z,6.75
2018-04-28T23:38:23.806Z,5.90
2018-04-28T23:40:52.527Z,6.90
2018-04-28T23:43:21.030Z,6.70
2018-04-28T23:45:49.417Z,5.40
2018-04-28T23:48:17.751Z,6.73
2018-04-28T23:50:46.160Z,6.20
2018-04-28T23:53:14.497Z,7.68
2018-04-28T23:55:42.853Z,8.13
2018-04-28T23:58:11.192Z,7.10
